This is the latest recevied weather packets stored in our database for station/object XE3JAR. If no packets are shown the sender has not sent any weather packets the latest 10 day(s).
| Time | Temp. | Humidity | Pressure | Rain* | Wind** | Luminosity | Snow |
|---|---|---|---|---|---|---|---|
| 1778172558 | 41.11° C | 54% | 1014.6 hPa | - | - | - | - |
| 1778170428 | 41.11° C | 54% | 1014.9 hPa | - | - | - | - |
| 1778164496 | 33.89° C | 68% | 1015.2 hPa | - | - | - | - |
| 1778163584 | 32.78° C | 71% | 1014.9 hPa | - | - | - | - |
| 1778162976 | 32.78° C | 71% | 1014.9 hPa | - | - | - | - |
| 1778161458 | 31.11° C | 74% | 1014.9 hPa | - | - | - | - |
| 1778161160 | 31.11° C | 75% | 1014.9 hPa | - | - | - | - |
| 1778160243 | 31.11° C | 76% | 1014.9 hPa | - | - | - | - |
| 1778159940 | 31.11° C | 77% | 1014.9 hPa | - | - | - | - |
| 1778159636 | 30° C | 78% | 1014.9 hPa | - | - | - | - |
| 1778159354 | 30° C | 78% | 1014.6 hPa | - | - | - | - |
| 1778159033 | 28.89° C | 78% | 1014.6 hPa | - | - | - | - |
| 1778158744 | 28.89° C | 79% | 1014.6 hPa | - | - | - | - |
| 1778157808 | 27.78° C | 82% | 1014.6 hPa | - | - | - | - |
| 1778154499 | 27.22° C | 85% | 1014.2 hPa | - | - | - | - |
| 1778152989 | 27.22° C | 85% | 1013.9 hPa | - | - | - | - |
| 1778151581 | 27.22° C | 83% | 1013.6 hPa | - | - | - | - |
| 1778150672 | 27.78° C | 81% | 1013.6 hPa | - | - | - | - |
| 1778149146 | 27.78° C | 81% | 1013.2 hPa | - | - | - | - |
| 1778148247 | 27.78° C | 81% | 1012.9 hPa | - | - | - | - |
| 1778144874 | 27.78° C | 79% | 1012.9 hPa | - | - | - | - |
| 1778142191 | 28.89° C | 76% | 1012.9 hPa | - | - | - | - |
| 1778140681 | 28.89° C | 74% | 1013.2 hPa | - | - | - | - |
| 1778139185 | 28.89° C | 74% | 1013.2 hPa | - | - | - | - |
| 1778138904 | 28.89° C | 74% | 1013.2 hPa | - | - | - | - |
* Rain since midnight (hover to see other rain measurements)
** Current wind speed in m/s (hover to see current wind gust speed)